createdAt,value
2019-05-07T00:01:59.367Z,68.80
2019-05-07T00:04:29.639Z,68.90
2019-05-07T00:07:02.226Z,68.90
2019-05-07T00:09:32.398Z,69.00
2019-05-07T00:12:05.152Z,69.00
2019-05-07T00:14:34.919Z,69.00
2019-05-07T00:17:05.827Z,69.30
2019-05-07T00:19:36.115Z,69.20
2019-05-07T00:22:06.416Z,69.20
2019-05-07T00:24:37.059Z,69.30
2019-05-07T00:27:07.431Z,69.40
2019-05-07T00:29:37.698Z,69.20
2019-05-07T00:32:07.905Z,69.20
2019-05-07T00:34:43.256Z,69.20
2019-05-07T00:37:22.029Z,69.10
2019-05-07T00:40:06.639Z,69.30
2019-05-07T00:42:55.926Z,69.60
2019-05-07T00:45:32.721Z,69.60
2019-05-07T00:48:03.028Z,69.70
2019-05-07T00:50:35.478Z,69.50
2019-05-07T00:53:05.687Z,69.60
2019-05-07T00:55:36.016Z,69.60
2019-05-07T00:58:06.309Z,69.60
2019-05-07T01:00:36.993Z,69.70
2019-05-07T01:03:07.264Z,69.70
2019-05-07T01:05:37.571Z,69.60
2019-05-07T01:08:07.817Z,69.60
2019-05-07T01:10:38.121Z,69.70
2019-05-07T01:13:08.485Z,69.70
2019-05-07T01:15:38.944Z,69.80
2019-05-07T01:18:09.219Z,69.70
2019-05-07T01:20:42.086Z,69.70
2019-05-07T01:23:13.450Z,69.80
2019-05-07T01:25:43.878Z,69.80
2019-05-07T01:28:14.119Z,70.00
2019-05-07T01:30:44.826Z,70.00
2019-05-07T01:33:42.255Z,70.00
2019-05-07T01:36:22.615Z,70.00
2019-05-07T01:38:53.439Z,70.00
2019-05-07T01:41:23.845Z,70.10
2019-05-07T01:43:54.102Z,71.00
2019-05-07T01:46:24.800Z,70.20
2019-05-07T01:48:57.477Z,70.30
2019-05-07T01:51:27.426Z,70.20
2019-05-07T01:53:57.713Z,70.20
2019-05-07T01:56:28.024Z,70.30
2019-05-07T01:58:58.192Z,70.20
2019-05-07T02:01:28.956Z,70.20
2019-05-07T02:04:07.338Z,70.30
2019-05-07T02:06:59.956Z,70.20
2019-05-07T02:09:53.346Z,70.90
2019-05-07T02:12:28.627Z,70.20
2019-05-07T02:14:58.825Z,70.30
2019-05-07T02:17:29.089Z,70.50
2019-05-07T02:19:59.375Z,70.50
2019-05-07T02:22:31.842Z,70.50
2019-05-07T02:25:03.309Z,70.60
2019-05-07T02:27:34.273Z,70.60
2019-05-07T02:30:25.069Z,70.50
2019-05-07T02:32:55.764Z,70.50
2019-05-07T02:35:26.040Z,70.50
2019-05-07T02:38:06.001Z,70.60
2019-05-07T02:41:02.871Z,70.60
2019-05-07T02:43:34.018Z,70.50
2019-05-07T02:46:31.011Z,70.40
2019-05-07T02:49:32.773Z,70.30
2019-05-07T02:52:14.254Z,70.50
2019-05-07T02:55:04.038Z,70.50
2019-05-07T02:57:34.413Z,70.50
2019-05-07T03:00:06.301Z,70.50
2019-05-07T03:02:36.585Z,70.50
2019-05-07T03:05:07.233Z,70.60
2019-05-07T03:07:37.555Z,70.70
2019-05-07T03:10:08.168Z,70.70
2019-05-07T03:12:38.798Z,70.70
2019-05-07T03:15:09.068Z,70.60
2019-05-07T03:17:42.656Z,70.60
2019-05-07T03:20:15.492Z,70.60
2019-05-07T03:22:46.095Z,70.70
2019-05-07T03:25:23.127Z,70.70
2019-05-07T03:27:53.791Z,70.70
2019-05-07T03:30:35.879Z,70.80
2019-05-07T03:33:16.095Z,70.80
2019-05-07T03:35:48.631Z,70.80
2019-05-07T03:38:19.287Z,70.90
2019-05-07T03:40:52.957Z,70.90
2019-05-07T03:43:22.821Z,70.90
2019-05-07T03:46:14.067Z,71.00
2019-05-07T03:48:46.480Z,70.90
2019-05-07T03:51:17.370Z,70.90
2019-05-07T03:53:47.656Z,71.70
2019-05-07T03:56:17.969Z,70.90
2019-05-07T03:58:48.295Z,70.90
2019-05-07T04:01:18.621Z,71.30
2019-05-07T04:03:49.420Z,71.00
2019-05-07T04:06:19.823Z,71.00
2019-05-07T04:08:52.979Z,71.00
2019-05-07T04:11:23.016Z,70.90
2019-05-07T04:17:26.997Z,71.00
2019-05-07T04:19:56.558Z,71.00
2019-05-07T04:22:29.110Z,71.10
2019-05-07T04:25:13.126Z,71.10
2019-05-07T04:28:03.736Z,71.20
2019-05-07T04:30:34.681Z,71.10
2019-05-07T04:33:07.056Z,71.20
2019-05-07T04:35:43.404Z,71.20
2019-05-07T04:38:14.074Z,71.20
2019-05-07T04:40:44.326Z,71.40
2019-05-07T04:43:14.681Z,71.30
2019-05-07T04:45:44.957Z,71.40
2019-05-07T04:48:15.588Z,71.40
2019-05-07T04:50:48.144Z,71.40
2019-05-07T04:53:18.733Z,71.50
2019-05-07T04:55:48.993Z,71.50
2019-05-07T04:58:19.309Z,71.50
2019-05-07T05:00:49.585Z,71.60
2019-05-07T05:03:23.794Z,71.60
2019-05-07T05:05:54.265Z,71.60
2019-05-07T05:08:24.595Z,71.60
2019-05-07T05:10:54.915Z,71.60
2019-05-07T05:13:25.857Z,71.70
2019-05-07T05:15:56.476Z,71.80
2019-05-07T05:18:27.513Z,72.30
2019-05-07T05:21:14.516Z,72.60
2019-05-07T05:24:12.806Z,71.80
2019-05-07T05:26:43.351Z,71.80
2019-05-07T05:29:14.765Z,72.10
2019-05-07T05:31:45.331Z,72.20
2019-05-07T05:34:15.643Z,72.20
2019-05-07T05:36:46.045Z,72.40
2019-05-07T05:39:16.348Z,72.70
2019-05-07T05:41:48.741Z,73.10
2019-05-07T05:44:38.042Z,73.50
2019-05-07T05:47:08.437Z,73.70
2019-05-07T05:49:38.866Z,73.40
2019-05-07T05:52:22.586Z,72.20
2019-05-07T05:55:02.560Z,71.40
2019-05-07T05:57:43.883Z,71.10
2019-05-07T06:00:42.679Z,71.00
2019-05-07T06:03:38.660Z,71.20
2019-05-07T06:06:16.521Z,70.90
2019-05-07T06:09:05.759Z,71.30
2019-05-07T06:11:53.969Z,71.60
2019-05-07T06:14:30.043Z,71.40
2019-05-07T06:17:15.243Z,71.50
2019-05-07T06:19:51.881Z,71.70
2019-05-07T06:22:33.112Z,71.60
2019-05-07T06:25:15.016Z,71.60
2019-05-07T06:27:45.788Z,71.80
2019-05-07T06:30:17.054Z,71.80
2019-05-07T06:32:47.491Z,71.70
2019-05-07T06:35:20.079Z,71.90
2019-05-07T06:37:52.181Z,72.20
2019-05-07T06:40:46.514Z,72.20
2019-05-07T06:43:32.498Z,72.00
2019-05-07T06:46:03.717Z,72.00
2019-05-07T06:48:41.785Z,71.70
2019-05-07T06:51:06.094Z,71.90
2019-05-07T06:53:36.394Z,72.10
2019-05-07T06:56:06.724Z,71.90
2019-05-07T06:59:02.281Z,72.00
2019-05-07T07:01:44.334Z,72.00
2019-05-07T07:04:22.468Z,71.50
2019-05-07T07:07:27.221Z,71.60
2019-05-07T07:10:13.672Z,71.40
2019-05-07T07:12:44.312Z,71.90
2019-05-07T07:15:14.710Z,72.00
2019-05-07T07:17:48.469Z,72.30
2019-05-07T07:20:18.761Z,71.90
2019-05-07T07:22:52.016Z,71.10
2019-05-07T07:25:22.945Z,71.30
2019-05-07T07:27:53.530Z,70.90
2019-05-07T07:30:46.275Z,70.70
2019-05-07T07:33:17.266Z,70.70
2019-05-07T07:35:47.571Z,71.00
2019-05-07T07:38:34.586Z,71.00
2019-05-07T07:41:27.072Z,70.90
2019-05-07T07:43:57.491Z,70.80
2019-05-07T07:46:28.070Z,71.60
2019-05-07T07:49:07.854Z,70.80
2019-05-07T07:51:38.793Z,70.10
2019-05-07T07:54:02.953Z,70.10
2019-05-07T07:56:52.880Z,69.80
2019-05-07T07:59:35.293Z,69.80
2019-05-07T08:02:13.827Z,69.40
2019-05-07T08:04:44.174Z,70.00
2019-05-07T08:07:14.449Z,69.30
2019-05-07T08:09:44.710Z,69.40
2019-05-07T08:12:16.491Z,68.50
2019-05-07T08:14:46.795Z,68.80
2019-05-07T08:17:17.520Z,68.70
2019-05-07T08:19:47.785Z,68.50
2019-05-07T08:22:18.064Z,68.90
2019-05-07T08:24:48.631Z,69.10
2019-05-07T08:27:18.914Z,68.40
2019-05-07T08:29:49.478Z,68.00
2019-05-07T08:32:29.983Z,67.70
2019-05-07T08:35:05.917Z,67.20
2019-05-07T08:37:36.627Z,67.20
2019-05-07T08:40:07.992Z,66.60
2019-05-07T08:42:38.298Z,66.30
2019-05-07T08:45:26.349Z,66.50
2019-05-07T08:47:58.806Z,65.70
2019-05-07T08:50:29.244Z,66.00
2019-05-07T08:52:59.530Z,66.40
2019-05-07T08:55:31.794Z,66.10
2019-05-07T08:58:02.831Z,65.20
2019-05-07T09:00:33.158Z,64.80
2019-05-07T09:03:03.454Z,65.20
2019-05-07T09:05:34.096Z,64.60
2019-05-07T09:08:04.465Z,62.80
2019-05-07T09:10:34.825Z,63.80
2019-05-07T09:13:05.103Z,63.00
2019-05-07T09:15:35.401Z,62.40
2019-05-07T09:18:05.985Z,63.00
2019-05-07T09:20:36.872Z,63.70
2019-05-07T09:23:14.765Z,62.70
2019-05-07T09:25:48.708Z,64.00
2019-05-07T09:28:21.806Z,63.50
2019-05-07T09:31:01.669Z,62.80
2019-05-07T09:33:44.296Z,60.40
2019-05-07T09:36:22.768Z,61.40
2019-05-07T09:38:59.306Z,60.90
2019-05-07T09:41:29.366Z,60.90
2019-05-07T09:44:00.004Z,61.20
2019-05-07T09:46:32.345Z,60.60
2019-05-07T09:49:03.116Z,62.40
2019-05-07T09:51:34.545Z,62.30
2019-05-07T09:54:05.210Z,60.40
2019-05-07T09:56:35.643Z,61.20
2019-05-07T09:59:05.964Z,60.40
2019-05-07T10:01:36.317Z,60.30
2019-05-07T10:04:06.546Z,60.70
2019-05-07T10:06:36.982Z,60.50
2019-05-07T10:09:07.936Z,60.30
2019-05-07T10:11:47.693Z,60.30
2019-05-07T10:14:18.417Z,59.90
2019-05-07T10:17:07.475Z,58.70
2019-05-07T10:19:37.726Z,59.20
2019-05-07T10:22:08.204Z,59.60
2019-05-07T10:24:38.678Z,59.70
2019-05-07T10:27:09.115Z,60.70
2019-05-07T10:29:42.614Z,60.40
2019-05-07T10:32:12.933Z,60.40
2019-05-07T10:34:43.362Z,60.00
2019-05-07T10:37:13.972Z,59.70
2019-05-07T10:39:44.324Z,61.00
2019-05-07T10:42:14.681Z,60.50
2019-05-07T10:44:52.487Z,60.30
2019-05-07T10:47:34.598Z,60.10
2019-05-07T10:50:39.022Z,59.50
2019-05-07T10:53:05.161Z,58.70
2019-05-07T10:55:35.666Z,58.20
2019-05-07T10:58:05.914Z,57.60
2019-05-07T11:00:36.216Z,57.70
2019-05-07T11:03:06.639Z,58.10
2019-05-07T11:05:36.941Z,57.50
2019-05-07T11:08:07.226Z,58.30
2019-05-07T11:10:37.828Z,58.20
2019-05-07T11:13:08.056Z,57.60
2019-05-07T11:15:38.939Z,58.40
2019-05-07T11:18:34.398Z,57.30
2019-05-07T11:21:05.098Z,58.10
2019-05-07T11:23:35.420Z,58.20
2019-05-07T11:26:05.707Z,58.30
2019-05-07T11:28:36.034Z,58.40
2019-05-07T11:31:06.343Z,58.70
2019-05-07T11:33:36.827Z,58.70
2019-05-07T11:36:07.099Z,58.30
2019-05-07T11:38:37.389Z,58.40
2019-05-07T11:41:07.747Z,58.10
2019-05-07T11:44:06.206Z,58.20
2019-05-07T11:46:54.421Z,56.30
2019-05-07T11:49:52.732Z,55.90
2019-05-07T11:52:35.234Z,53.20
2019-05-07T11:55:03.513Z,56.90
2019-05-07T11:57:34.106Z,56.80
2019-05-07T12:00:05.377Z,56.30
2019-05-07T12:02:35.673Z,56.10
2019-05-07T12:05:07.147Z,56.20
2019-05-07T12:07:37.517Z,54.90
2019-05-07T12:10:07.799Z,55.90
2019-05-07T12:12:40.549Z,55.00
2019-05-07T12:15:12.488Z,55.60
2019-05-07T12:17:42.968Z,55.80
2019-05-07T12:20:13.883Z,55.90
2019-05-07T12:22:47.682Z,54.50
2019-05-07T12:25:19.078Z,55.60
2019-05-07T12:27:51.810Z,55.40
2019-05-07T12:30:42.683Z,55.30
2019-05-07T12:33:38.294Z,54.90
2019-05-07T12:36:09.714Z,54.60
2019-05-07T12:38:41.721Z,54.60
2019-05-07T12:41:33.151Z,54.00
2019-05-07T12:44:06.420Z,54.10
2019-05-07T12:46:37.409Z,53.30
2019-05-07T12:49:07.836Z,53.90
2019-05-07T12:52:02.155Z,53.30
2019-05-07T12:54:49.250Z,54.60
2019-05-07T12:57:21.852Z,53.70
2019-05-07T12:59:52.972Z,54.30
2019-05-07T13:02:44.106Z,53.30
2019-05-07T13:05:13.001Z,52.60
2019-05-07T13:07:53.754Z,52.30
2019-05-07T13:10:24.057Z,52.70
2019-05-07T13:12:54.317Z,52.00
2019-05-07T13:15:27.806Z,51.20
2019-05-07T13:17:56.579Z,52.90
2019-05-07T13:20:26.856Z,52.50
2019-05-07T13:22:57.144Z,52.20
2019-05-07T13:25:28.728Z,52.20
2019-05-07T13:27:59.066Z,52.40
2019-05-07T13:30:29.386Z,52.20
2019-05-07T13:33:02.005Z,51.70
2019-05-07T13:35:32.974Z,52.20
2019-05-07T13:38:23.816Z,51.10
2019-05-07T13:41:19.099Z,49.10
2019-05-07T13:44:12.388Z,50.20
2019-05-07T13:46:44.982Z,50.30
2019-05-07T13:49:15.664Z,49.30
2019-05-07T13:51:46.538Z,49.80
2019-05-07T13:54:16.955Z,49.50
2019-05-07T13:56:47.453Z,48.80
2019-05-07T13:59:17.883Z,48.40
2019-05-07T14:01:58.858Z,49.50
2019-05-07T14:04:30.131Z,49.20
2019-05-07T14:07:01.940Z,48.40
2019-05-07T14:09:32.740Z,48.30
2019-05-07T14:12:03.319Z,48.80
2019-05-07T14:14:34.477Z,49.10
2019-05-07T14:17:05.418Z,48.30
2019-05-07T14:19:36.235Z,48.80
2019-05-07T14:22:15.237Z,46.50
2019-05-07T14:24:38.812Z,48.30
2019-05-07T14:27:09.251Z,47.90
2019-05-07T14:29:39.793Z,47.90
2019-05-07T14:32:31.921Z,47.40
2019-05-07T14:35:27.182Z,47.40
2019-05-07T14:38:13.878Z,48.10
2019-05-07T14:40:44.785Z,48.50
2019-05-07T14:43:21.960Z,48.60
2019-05-07T14:45:52.480Z,48.20
2019-05-07T14:48:23.223Z,48.80
2019-05-07T14:50:53.708Z,48.80
2019-05-07T14:53:24.381Z,48.30
2019-05-07T14:55:55.130Z,48.80
2019-05-07T14:58:26.010Z,48.30
2019-05-07T15:00:57.402Z,48.90
2019-05-07T15:03:27.814Z,49.00
2019-05-07T15:05:59.012Z,49.00
2019-05-07T15:08:29.410Z,49.10
2019-05-07T15:10:59.824Z,49.40
2019-05-07T15:13:32.299Z,48.70
2019-05-07T15:16:03.178Z,48.60
2019-05-07T15:18:52.750Z,49.10
2019-05-07T15:21:22.922Z,47.00
2019-05-07T15:23:55.489Z,48.50
2019-05-07T15:26:27.302Z,48.60
2019-05-07T15:29:17.451Z,48.70
2019-05-07T15:32:09.823Z,48.70
2019-05-07T15:34:42.109Z,48.40
2019-05-07T15:37:12.940Z,48.70
2019-05-07T15:39:43.297Z,48.30
2019-05-07T15:42:14.137Z,47.50
2019-05-07T15:44:44.651Z,48.10
2019-05-07T15:47:22.297Z,47.60
2019-05-07T15:49:52.618Z,47.40
2019-05-07T15:52:41.374Z,48.00
2019-05-07T15:55:11.892Z,47.70
2019-05-07T15:57:42.802Z,48.40
2019-05-07T16:00:15.861Z,46.90
2019-05-07T16:02:48.604Z,46.80
2019-05-07T16:05:19.227Z,46.20
2019-05-07T16:07:50.120Z,46.40
2019-05-07T16:10:23.027Z,46.80
2019-05-07T16:12:53.260Z,47.00
2019-05-07T16:15:24.005Z,47.10
2019-05-07T16:17:59.146Z,47.30
2019-05-07T16:20:29.468Z,46.40
2019-05-07T16:23:13.929Z,46.00
2019-05-07T16:25:34.682Z,46.90
2019-05-07T16:28:06.774Z,47.00
2019-05-07T16:30:37.070Z,46.60
2019-05-07T16:33:07.384Z,46.10
2019-05-07T16:35:37.672Z,46.00
2019-05-07T16:38:25.356Z,46.80
2019-05-07T16:40:56.007Z,46.10
2019-05-07T16:43:26.316Z,46.50
2019-05-07T16:45:56.914Z,46.80
2019-05-07T16:48:27.223Z,46.30
2019-05-07T16:50:57.881Z,46.40
2019-05-07T16:53:30.292Z,46.60
2019-05-07T16:56:00.134Z,46.70
2019-05-07T16:58:38.147Z,46.70
2019-05-07T17:01:09.812Z,46.20
2019-05-07T17:03:45.804Z,45.90
2019-05-07T17:06:16.121Z,46.00
2019-05-07T17:09:10.198Z,46.70
2019-05-07T17:11:40.514Z,46.20
2019-05-07T17:14:12.729Z,46.20
2019-05-07T17:16:42.820Z,46.30
2019-05-07T17:19:14.613Z,46.00
2019-05-07T17:21:45.983Z,46.50
2019-05-07T17:24:16.305Z,46.50
2019-05-07T17:26:46.599Z,46.20
2019-05-07T17:29:17.511Z,46.00
2019-05-07T17:31:47.829Z,46.10
2019-05-07T17:34:18.163Z,46.50
2019-05-07T17:36:48.810Z,46.20
2019-05-07T17:39:19.205Z,46.40
2019-05-07T17:41:51.751Z,45.90
2019-05-07T17:44:23.210Z,46.10
2019-05-07T17:46:53.356Z,46.30
2019-05-07T17:49:24.366Z,46.10
2019-05-07T17:54:36.400Z,46.10
2019-05-07T17:57:06.647Z,45.90
2019-05-07T17:59:37.489Z,46.20
2019-05-07T18:02:42.214Z,46.10
2019-05-07T18:05:12.914Z,46.20
2019-05-07T18:07:43.307Z,46.20
2019-05-07T18:10:13.730Z,46.00
2019-05-07T18:12:44.103Z,46.40
2019-05-07T18:15:14.459Z,46.60
2019-05-07T18:18:04.391Z,46.70
2019-05-07T18:20:35.075Z,46.50
2019-05-07T18:23:07.199Z,46.90
2019-05-07T18:25:37.461Z,46.90
2019-05-07T18:28:07.769Z,46.80
2019-05-07T18:30:38.096Z,46.20
2019-05-07T18:33:25.400Z,46.70
2019-05-07T18:35:55.679Z,46.70
2019-05-07T18:38:26.347Z,47.00
2019-05-07T18:40:56.662Z,47.10
2019-05-07T18:43:27.250Z,47.00
2019-05-07T18:45:58.086Z,46.90
2019-05-07T18:48:28.595Z,47.20
2019-05-07T18:51:02.728Z,47.20
2019-05-07T18:53:33.045Z,47.40
2019-05-07T18:56:03.658Z,47.50
2019-05-07T18:58:34.960Z,47.50
2019-05-07T19:01:09.715Z,47.40
2019-05-07T19:03:41.970Z,47.50
2019-05-07T19:06:13.597Z,47.50
2019-05-07T19:08:44.044Z,47.80
2019-05-07T19:11:14.417Z,47.60
2019-05-07T19:13:44.692Z,47.80
2019-05-07T19:16:15.561Z,47.80
2019-05-07T19:18:46.118Z,48.00
2019-05-07T19:21:16.452Z,47.80
2019-05-07T19:23:46.743Z,48.10
2019-05-07T19:26:17.084Z,48.00
2019-05-07T19:28:47.412Z,48.20
2019-05-07T19:31:17.673Z,48.20
2019-05-07T19:33:47.998Z,48.30
2019-05-07T19:36:18.318Z,48.10
2019-05-07T19:38:48.672Z,48.30
2019-05-07T19:41:19.301Z,48.50
2019-05-07T19:43:52.776Z,48.60
2019-05-07T19:46:23.263Z,48.60
2019-05-07T19:48:53.523Z,48.70
2019-05-07T19:51:23.704Z,48.80
2019-05-07T19:53:54.197Z,48.90
2019-05-07T19:56:37.139Z,48.90
2019-05-07T19:59:07.457Z,49.10
2019-05-07T20:01:45.331Z,49.10
2019-05-07T20:04:15.611Z,49.10
2019-05-07T20:06:45.895Z,49.20
2019-05-07T20:09:18.060Z,49.30
2019-05-07T20:11:49.292Z,49.40
2019-05-07T20:14:19.514Z,49.50
2019-05-07T20:16:49.708Z,49.50
2019-05-07T20:19:19.862Z,49.60
2019-05-07T20:21:52.250Z,49.60
2019-05-07T20:24:22.092Z,49.60
2019-05-07T20:26:53.341Z,49.80
2019-05-07T20:29:24.098Z,49.90
2019-05-07T20:31:55.169Z,50.10
2019-05-07T20:34:25.403Z,50.10
2019-05-07T20:36:55.583Z,50.10
2019-05-07T20:39:26.059Z,50.50
2019-05-07T20:41:56.699Z,50.30
2019-05-07T20:44:27.279Z,50.40
2019-05-07T20:46:57.491Z,50.40
2019-05-07T20:49:27.927Z,50.50
2019-05-07T20:51:58.149Z,50.50
2019-05-07T20:54:35.664Z,50.60
2019-05-07T20:57:09.302Z,50.60
2019-05-07T20:59:39.392Z,50.70
2019-05-07T21:02:11.743Z,50.70
2019-05-07T21:04:42.482Z,50.80
2019-05-07T21:07:12.897Z,50.90
2019-05-07T21:09:43.161Z,51.10
2019-05-07T21:12:13.675Z,51.00
2019-05-07T21:14:43.916Z,51.20
2019-05-07T21:17:14.177Z,51.10
2019-05-07T21:19:45.372Z,51.30
2019-05-07T21:22:15.632Z,51.30
2019-05-07T21:24:46.904Z,51.40
2019-05-07T21:27:18.573Z,51.40
2019-05-07T21:29:49.617Z,51.50
2019-05-07T21:32:20.044Z,52.30
2019-05-07T21:34:52.666Z,51.70
2019-05-07T21:37:23.065Z,51.60
2019-05-07T21:39:53.363Z,51.80
2019-05-07T21:42:23.902Z,51.90
2019-05-07T21:44:54.043Z,51.90
2019-05-07T21:47:24.283Z,52.00
2019-05-07T21:50:03.876Z,52.00
2019-05-07T21:52:39.358Z,52.20
2019-05-07T21:55:36.354Z,52.30
2019-05-07T21:58:27.035Z,52.30
2019-05-07T22:01:06.984Z,52.40
2019-05-07T22:03:39.096Z,52.60
2019-05-07T22:06:12.127Z,52.50
2019-05-07T22:08:41.543Z,52.50
2019-05-07T22:11:12.497Z,52.60
2019-05-07T22:13:43.527Z,52.60
2019-05-07T22:16:13.853Z,52.60
2019-05-07T22:18:44.055Z,52.90
2019-05-07T22:21:14.189Z,52.70
2019-05-07T22:23:45.617Z,52.70
2019-05-07T22:26:22.869Z,52.60
2019-05-07T22:28:53.879Z,52.60
2019-05-07T22:31:43.891Z,52.70
2019-05-07T22:34:38.002Z,53.20
2019-05-07T22:37:09.762Z,52.90
2019-05-07T22:39:44.275Z,52.90
2019-05-07T22:42:18.586Z,53.20
2019-05-07T22:44:49.227Z,53.20
2019-05-07T22:47:22.170Z,53.00
2019-05-07T22:49:53.603Z,53.10
2019-05-07T22:52:24.160Z,53.20
2019-05-07T22:54:54.497Z,53.30
2019-05-07T22:57:48.794Z,53.40
2019-05-07T23:00:43.955Z,53.30
2019-05-07T23:03:14.283Z,53.40
2019-05-07T23:05:45.110Z,53.50
2019-05-07T23:08:15.391Z,53.90
2019-05-07T23:10:45.827Z,53.80
2019-05-07T23:13:16.104Z,53.60
2019-05-07T23:15:46.514Z,53.50
2019-05-07T23:18:16.698Z,53.60
2019-05-07T23:20:47.436Z,53.60
2019-05-07T23:23:17.716Z,53.70
2019-05-07T23:25:48.346Z,53.70
2019-05-07T23:28:18.935Z,53.70
2019-05-07T23:30:51.699Z,54.20
2019-05-07T23:33:22.648Z,53.80
2019-05-07T23:35:53.178Z,53.80
2019-05-07T23:38:23.434Z,54.00
2019-05-07T23:41:22.331Z,53.90
2019-05-07T23:44:14.345Z,53.90
2019-05-07T23:46:45.288Z,54.00
2019-05-07T23:49:19.504Z,54.20
2019-05-07T23:51:52.785Z,54.20
2019-05-07T23:54:23.221Z,54.40
2019-05-07T23:57:05.850Z,54.40
2019-05-07T23:59:27.680Z,54.40
